Airport View

Enter AWOS ICAO identifier for current METAR.

ex. KFNL

KTSP 022335Z AUTO 31008G16KT 8SM CLR 28/09 A3012 RMK AO2

2 Jun 2020 23:40

Frequency: 120.025

Phone: 661-823-0473

Other Area AWOS: KMHV - KWJF - KSDB - KEDW

TAF KWJF 021720Z 0218/0318 VRB03KT P6SM BKN150 FM022200 23012G18KT P6SM BKN150 FM030000 25015G25KT P6SM BKN150 FM030300 25012KT P6SM BKN200 FM030900 VRB05KT P6SM BKN200